createdAt,value
2022-09-07T00:02:55.250Z,16.50
2022-09-07T00:07:59.968Z,16.40
2022-09-07T00:13:07.320Z,16.30
2022-09-07T00:18:10.776Z,16.40
2022-09-07T00:23:14.104Z,16.40
2022-09-07T00:28:18.692Z,16.40
2022-09-07T00:33:22.493Z,16.40
2022-09-07T00:38:26.537Z,16.40
2022-09-07T00:43:36.956Z,16.30
2022-09-07T00:48:45.100Z,16.20
2022-09-07T00:53:53.839Z,16.10
2022-09-07T00:58:59.616Z,16.00
2022-09-07T01:04:04.362Z,16.00
2022-09-07T01:09:11.181Z,16.00
2022-09-07T01:14:16.931Z,16.10
2022-09-07T01:20:01.588Z,16.10
2022-09-07T01:25:09.235Z,16.20
2022-09-07T01:30:15.666Z,16.20
2022-09-07T01:35:26.169Z,16.30
2022-09-07T01:40:35.483Z,16.30
2022-09-07T01:45:44.191Z,16.40
2022-09-07T01:50:52.772Z,16.40
2022-09-07T01:56:00.093Z,16.40
2022-09-07T02:01:09.495Z,16.30
2022-09-07T02:06:18.286Z,16.30
2022-09-07T02:11:29.396Z,16.30
2022-09-07T02:16:36.218Z,16.30
2022-09-07T02:21:43.770Z,16.30
2022-09-07T02:26:52.703Z,16.40
2022-09-07T02:31:58.188Z,16.50
2022-09-07T02:37:05.507Z,16.60
2022-09-07T02:42:08.885Z,16.60
2022-09-07T02:47:28.292Z,16.60
2022-09-07T02:52:42.904Z,16.60
2022-09-07T02:57:55.893Z,16.60
2022-09-07T03:03:09.538Z,16.50
2022-09-07T03:08:21.492Z,16.50
2022-09-07T03:13:26.829Z,16.30
2022-09-07T03:18:31.645Z,16.20
2022-09-07T03:23:34.898Z,16.10
2022-09-07T03:28:38.482Z,16.00
2022-09-07T03:33:43.089Z,16.00
2022-09-07T03:38:46.679Z,16.00
2022-09-07T03:43:49.951Z,16.10
2022-09-07T03:48:57.298Z,16.10
2022-09-07T03:54:01.573Z,16.10
2022-09-07T03:59:04.971Z,16.00
2022-09-07T04:04:10.104Z,15.90
2022-09-07T04:09:17.415Z,15.90
2022-09-07T04:14:21.041Z,15.90
2022-09-07T04:19:26.062Z,15.80
2022-09-07T04:24:29.313Z,15.70
2022-09-07T04:29:32.740Z,15.70
2022-09-07T04:34:37.294Z,15.70
2022-09-07T04:39:41.677Z,15.70
2022-09-07T04:44:45.005Z,15.70
2022-09-07T04:49:51.791Z,15.80
2022-09-07T04:54:55.043Z,15.80
2022-09-07T04:59:58.343Z,15.70
2022-09-07T05:05:03.089Z,15.70
2022-09-07T05:10:07.977Z,15.70
2022-09-07T05:15:11.792Z,15.90
2022-09-07T05:20:20.179Z,16.10
2022-09-07T05:25:23.553Z,16.30
2022-09-07T05:35:58.827Z,16.70
2022-09-07T05:41:02.158Z,16.80
2022-09-07T05:46:06.406Z,16.80
2022-09-07T05:51:12.306Z,17.00
2022-09-07T05:56:16.098Z,17.10
2022-09-07T06:01:19.502Z,17.20
2022-09-07T06:06:24.073Z,17.40
2022-09-07T06:11:28.075Z,17.50
2022-09-07T06:16:35.234Z,17.60
2022-09-07T06:21:40.097Z,17.80
2022-09-07T06:26:43.509Z,18.10
2022-09-07T06:37:11.704Z,19.20
2022-09-07T06:42:14.863Z,20.70
2022-09-07T06:47:17.989Z,25.40
2022-09-07T06:52:22.575Z,28.40
2022-09-07T06:57:27.170Z,31.30
2022-09-07T07:02:30.413Z,33.40
2022-09-07T07:07:35.863Z,34.50
2022-09-07T07:17:41.105Z,35.60
2022-09-07T07:22:46.836Z,34.70
2022-09-07T07:27:50.466Z,33.60
2022-09-07T07:32:53.699Z,34.60
2022-09-07T07:43:21.611Z,33.80
2022-09-07T07:53:45.427Z,32.40
2022-09-07T07:58:49.301Z,31.20
2022-09-07T08:03:52.935Z,29.80
2022-09-07T08:08:57.621Z,30.90
2022-09-07T08:14:02.238Z,31.90
2022-09-07T08:19:05.798Z,30.90
2022-09-07T08:24:10.620Z,31.10
2022-09-07T08:29:13.902Z,32.30
2022-09-07T08:34:17.292Z,33.80
2022-09-07T08:39:22.346Z,34.50
2022-09-07T08:44:29.307Z,34.80
2022-09-07T08:49:40.720Z,34.60
2022-09-07T08:54:53.925Z,34.70
2022-09-07T09:00:07.673Z,34.20
2022-09-07T09:05:22.922Z,33.70
2022-09-07T09:10:37.676Z,31.90
2022-09-07T09:16:02.241Z,32.10
2022-09-07T09:21:07.973Z,32.80
2022-09-07T09:26:17.825Z,30.80
2022-09-07T09:31:23.241Z,30.20
2022-09-07T09:36:34.359Z,31.50
2022-09-07T09:41:40.107Z,31.30
2022-09-07T09:47:29.469Z,29.10
2022-09-07T09:52:43.381Z,28.90
2022-09-07T10:08:56.517Z,31.00
2022-09-07T10:14:01.132Z,30.30
2022-09-07T10:19:04.358Z,30.10
2022-09-07T10:24:16.404Z,30.30
2022-09-07T10:29:28.650Z,30.10
2022-09-07T10:34:42.735Z,29.70
2022-09-07T10:40:00.574Z,29.90
2022-09-07T10:45:14.982Z,29.60
2022-09-07T10:50:31.947Z,29.80
2022-09-07T10:55:39.624Z,30.10
2022-09-07T11:00:56.801Z,29.40
2022-09-07T11:06:11.044Z,28.50
2022-09-07T11:12:00.737Z,28.50
2022-09-07T11:16:57.086Z,29.10
2022-09-07T11:22:06.857Z,29.40
2022-09-07T11:27:17.269Z,29.90
2022-09-07T11:32:25.532Z,29.20
2022-09-07T11:37:39.734Z,29.60
2022-09-07T11:42:49.674Z,29.70
2022-09-07T11:47:59.397Z,29.90
2022-09-07T11:53:07.228Z,30.30
2022-09-07T11:58:36.646Z,30.40
2022-09-07T12:04:07.127Z,30.30
2022-09-07T12:09:28.739Z,30.20
2022-09-07T12:14:41.975Z,30.30
2022-09-07T12:19:46.684Z,30.30
2022-09-07T12:24:51.518Z,29.90
2022-09-07T12:30:25.603Z,29.90
2022-09-07T12:35:40.067Z,29.70
2022-09-07T12:40:50.247Z,30.20
2022-09-07T12:45:55.246Z,30.10
2022-09-07T12:51:07.716Z,29.70
2022-09-07T12:56:24.320Z,29.20
2022-09-07T13:01:44.276Z,29.70
2022-09-07T13:07:07.825Z,30.40
2022-09-07T13:17:58.842Z,30.20
2022-09-07T13:23:23.637Z,30.30
2022-09-07T13:28:33.219Z,29.60
2022-09-07T13:33:50.685Z,29.30
2022-09-07T13:38:56.554Z,29.50
2022-09-07T13:44:02.007Z,29.30
2022-09-07T13:49:13.554Z,29.30
2022-09-07T13:54:25.747Z,29.30
2022-09-07T13:59:31.866Z,29.40
2022-09-07T14:04:40.723Z,29.60
2022-09-07T14:09:45.308Z,29.80
2022-09-07T14:14:48.853Z,29.90
2022-09-07T14:19:52.936Z,30.10
2022-09-07T14:24:59.271Z,30.10
2022-09-07T14:30:25.391Z,29.70
2022-09-07T14:35:33.611Z,29.60
2022-09-07T14:40:38.515Z,29.30
2022-09-07T14:45:41.971Z,29.30
2022-09-07T14:51:01.053Z,29.50
2022-09-07T14:56:22.025Z,29.60
2022-09-07T15:01:42.353Z,29.60
2022-09-07T15:07:02.589Z,28.90
2022-09-07T15:12:27.007Z,28.70
2022-09-07T15:17:49.262Z,28.30
2022-09-07T15:22:52.750Z,28.00
2022-09-07T15:27:58.439Z,27.80
2022-09-07T15:33:01.631Z,27.90
2022-09-07T15:38:05.824Z,27.80
2022-09-07T15:43:19.913Z,27.70
2022-09-07T15:48:26.117Z,27.70
2022-09-07T15:58:58.019Z,27.80
2022-09-07T16:04:04.636Z,27.80
2022-09-07T16:09:08.611Z,27.70
2022-09-07T16:14:14.568Z,27.30
2022-09-07T16:19:21.233Z,27.00
2022-09-07T16:24:24.491Z,26.60
2022-09-07T16:29:29.066Z,26.40
2022-09-07T16:34:32.401Z,26.30
2022-09-07T16:39:35.938Z,26.20
2022-09-07T16:44:40.493Z,26.00
2022-09-07T16:49:45.719Z,25.90
2022-09-07T16:54:51.243Z,25.50
2022-09-07T16:59:57.948Z,25.30
2022-09-07T17:05:01.310Z,25.10
2022-09-07T17:10:04.785Z,24.80
2022-09-07T17:15:10.823Z,24.50
2022-09-07T17:20:16.268Z,24.20
2022-09-07T17:25:19.546Z,24.00
2022-09-07T17:30:24.785Z,23.80
2022-09-07T17:35:29.486Z,23.60
2022-09-07T17:40:35.345Z,23.10
2022-09-07T17:45:42.094Z,22.70
2022-09-07T17:50:45.325Z,22.40
2022-09-07T17:55:48.430Z,22.10
2022-09-07T18:00:53.292Z,21.90
2022-09-07T18:05:57.659Z,22.00
2022-09-07T18:16:35.341Z,21.80
2022-09-07T18:21:40.807Z,21.80
2022-09-07T18:26:49.577Z,21.70
2022-09-07T18:31:54.952Z,21.60
2022-09-07T18:36:59.195Z,21.50
2022-09-07T18:42:02.633Z,21.30
2022-09-07T18:47:08.656Z,21.10
2022-09-07T18:57:38.384Z,20.60
2022-09-07T19:02:43.387Z,20.60
2022-09-07T19:07:46.720Z,20.50
2022-09-07T19:12:49.852Z,20.40
2022-09-07T19:17:55.597Z,20.40
2022-09-07T19:22:59.865Z,20.40
2022-09-07T19:28:03.668Z,20.30
2022-09-07T19:33:10.110Z,20.20
2022-09-07T19:38:13.703Z,20.20
2022-09-07T19:43:16.865Z,20.20
2022-09-07T19:48:21.898Z,20.10
2022-09-07T19:53:25.084Z,20.00
2022-09-07T19:58:28.443Z,19.90
2022-09-07T20:03:34.718Z,19.80
2022-09-07T20:08:38.753Z,19.80
2022-09-07T20:13:44.346Z,19.70
2022-09-07T20:18:49.591Z,19.60
2022-09-07T20:23:53.963Z,19.60
2022-09-07T20:29:11.037Z,19.50
2022-09-07T20:34:22.686Z,19.50
2022-09-07T20:39:26.321Z,19.40
2022-09-07T20:44:29.433Z,19.30
2022-09-07T20:49:34.009Z,19.10
2022-09-07T20:54:39.927Z,19.10
2022-09-07T20:59:45.152Z,18.90
2022-09-07T21:04:50.792Z,18.90
2022-09-07T21:09:54.235Z,18.90
2022-09-07T21:14:57.873Z,18.90
2022-09-07T21:20:02.550Z,18.80
2022-09-07T21:25:06.664Z,18.70
2022-09-07T21:30:11.501Z,18.60
2022-09-07T21:35:17.424Z,18.60
2022-09-07T21:40:20.617Z,18.60
2022-09-07T21:45:28.161Z,18.60
2022-09-07T21:50:32.987Z,18.70
2022-09-07T21:55:37.673Z,18.70
2022-09-07T22:00:40.973Z,18.60
2022-09-07T22:05:45.613Z,18.60
2022-09-07T22:10:55.981Z,18.50
2022-09-07T22:15:59.292Z,18.50
2022-09-07T22:21:09.149Z,18.50
2022-09-07T22:26:17.091Z,18.50
2022-09-07T22:31:23.060Z,18.50
2022-09-07T22:36:30.718Z,18.40
2022-09-07T22:41:39.655Z,18.40
2022-09-07T22:46:44.737Z,18.40
2022-09-07T22:51:49.566Z,18.30
2022-09-07T22:56:52.721Z,18.20
2022-09-07T23:01:55.868Z,18.20
2022-09-07T23:07:00.458Z,18.20
2022-09-07T23:12:10.170Z,18.20
2022-09-07T23:17:17.938Z,18.20
2022-09-07T23:22:27.820Z,18.20
2022-09-07T23:27:32.714Z,18.20
2022-09-07T23:32:35.868Z,18.10
2022-09-07T23:37:41.560Z,18.10
2022-09-07T23:42:46.105Z,18.00
2022-09-07T23:47:50.437Z,17.90
2022-09-07T23:52:55.080Z,17.90
2022-09-07T23:57:58.212Z,17.80
